sensor_id;sensor_type;location;lat;lon;timestamp;P1;durP1;ratioP1;P2;durP2;ratioP2
67979;SDS011;54760;47.490;19.030;2023-05-24T00:00:46;5.72;;;2.95;;
67979;SDS011;54760;47.490;19.030;2023-05-24T00:03:12;5.25;;;2.80;;
67979;SDS011;54760;47.490;19.030;2023-05-24T00:05:39;4.68;;;3.20;;
67979;SDS011;54760;47.490;19.030;2023-05-24T00:08:05;4.50;;;3.03;;
67979;SDS011;54760;47.490;19.030;2023-05-24T00:10:30;3.60;;;3.00;;
67979;SDS011;54760;47.490;19.030;2023-05-24T00:12:56;5.00;;;3.22;;
67979;SDS011;54760;47.490;19.030;2023-05-24T00:15:21;4.10;;;2.97;;
67979;SDS011;54760;47.490;19.030;2023-05-24T00:17:47;3.47;;;2.80;;
67979;SDS011;54760;47.490;19.030;2023-05-24T00:20:12;3.75;;;2.95;;
67979;SDS011;54760;47.490;19.030;2023-05-24T00:22:38;3.78;;;3.10;;
67979;SDS011;54760;47.490;19.030;2023-05-24T00:25:04;3.97;;;2.85;;
67979;SDS011;54760;47.490;19.030;2023-05-24T00:27:30;8.15;;;3.72;;
67979;SDS011;54760;47.490;19.030;2023-05-24T00:29:56;7.75;;;3.97;;
67979;SDS011;54760;47.490;19.030;2023-05-24T00:32:22;4.20;;;3.35;;
67979;SDS011;54760;47.490;19.030;2023-05-24T00:34:47;6.40;;;3.17;;
67979;SDS011;54760;47.490;19.030;2023-05-24T00:37:13;6.05;;;3.30;;
67979;SDS011;54760;47.490;19.030;2023-05-24T00:39:38;3.78;;;2.75;;
67979;SDS011;54760;47.490;19.030;2023-05-24T00:42:04;4.37;;;3.12;;
67979;SDS011;54760;47.490;19.030;2023-05-24T00:44:30;4.53;;;3.40;;
67979;SDS011;54760;47.490;19.030;2023-05-24T00:46:55;6.12;;;3.45;;
67979;SDS011;54760;47.490;19.030;2023-05-24T00:49:21;4.95;;;3.33;;
67979;SDS011;54760;47.490;19.030;2023-05-24T00:51:47;3.30;;;2.92;;
67979;SDS011;54760;47.490;19.030;2023-05-24T00:54:17;5.82;;;3.30;;
67979;SDS011;54760;47.490;19.030;2023-05-24T00:56:42;4.25;;;3.15;;
67979;SDS011;54760;47.490;19.030;2023-05-24T00:59:08;4.62;;;2.95;;
67979;SDS011;54760;47.490;19.030;2023-05-24T01:01:34;5.05;;;3.28;;
67979;SDS011;54760;47.490;19.030;2023-05-24T01:04:01;6.70;;;3.20;;
67979;SDS011;54760;47.490;19.030;2023-05-24T01:06:27;3.90;;;3.00;;
67979;SDS011;54760;47.490;19.030;2023-05-24T01:16:00;4.60;;;3.30;;
67979;SDS011;54760;47.490;19.030;2023-05-24T01:18:26;4.60;;;3.00;;
67979;SDS011;54760;47.490;19.030;2023-05-24T01:29:29;6.25;;;3.55;;
67979;SDS011;54760;47.490;19.030;2023-05-24T01:31:56;3.92;;;3.42;;
67979;SDS011;54760;47.490;19.030;2023-05-24T01:34:23;4.95;;;3.30;;
67979;SDS011;54760;47.490;19.030;2023-05-24T01:36:50;7.22;;;3.50;;
67979;SDS011;54760;47.490;19.030;2023-05-24T01:39:15;4.62;;;3.00;;
67979;SDS011;54760;47.490;19.030;2023-05-24T01:41:56;5.00;;;3.40;;
67979;SDS011;54760;47.490;19.030;2023-05-24T01:44:33;3.90;;;3.20;;
67979;SDS011;54760;47.490;19.030;2023-05-24T01:50:04;4.90;;;3.10;;
67979;SDS011;54760;47.490;19.030;2023-05-24T01:52:35;4.95;;;3.30;;
67979;SDS011;54760;47.490;19.030;2023-05-24T01:55:02;5.70;;;3.03;;
67979;SDS011;54760;47.490;19.030;2023-05-24T01:57:31;4.55;;;3.12;;
67979;SDS011;54760;47.490;19.030;2023-05-24T01:59:58;4.75;;;3.53;;
67979;SDS011;54760;47.490;19.030;2023-05-24T02:02:26;4.53;;;3.20;;
67979;SDS011;54760;47.490;19.030;2023-05-24T02:04:52;3.75;;;3.22;;
67979;SDS011;54760;47.490;19.030;2023-05-24T02:07:18;6.45;;;3.08;;
67979;SDS011;54760;47.490;19.030;2023-05-24T02:09:43;7.05;;;3.65;;
67979;SDS011;54760;47.490;19.030;2023-05-24T02:12:09;3.97;;;3.30;;
67979;SDS011;54760;47.490;19.030;2023-05-24T02:14:35;6.22;;;3.08;;
67979;SDS011;54760;47.490;19.030;2023-05-24T02:17:01;6.22;;;3.25;;
67979;SDS011;54760;47.490;19.030;2023-05-24T02:19:27;3.72;;;3.40;;
67979;SDS011;54760;47.490;19.030;2023-05-24T02:21:53;6.43;;;3.20;;
67979;SDS011;54760;47.490;19.030;2023-05-24T02:24:18;6.50;;;3.90;;
67979;SDS011;54760;47.490;19.030;2023-05-24T02:26:44;5.25;;;3.80;;
67979;SDS011;54760;47.490;19.030;2023-05-24T02:29:09;5.15;;;3.75;;
67979;SDS011;54760;47.490;19.030;2023-05-24T02:31:35;4.30;;;3.47;;
67979;SDS011;54760;47.490;19.030;2023-05-24T02:34:00;7.82;;;3.83;;
67979;SDS011;54760;47.490;19.030;2023-05-24T02:36:26;4.47;;;3.72;;
67979;SDS011;54760;47.490;19.030;2023-05-24T02:38:52;6.07;;;4.87;;
67979;SDS011;54760;47.490;19.030;2023-05-24T02:41:18;11.32;;;6.95;;
67979;SDS011;54760;47.490;19.030;2023-05-24T02:43:44;6.60;;;4.12;;
67979;SDS011;54760;47.490;19.030;2023-05-24T02:46:10;6.70;;;4.30;;
67979;SDS011;54760;47.490;19.030;2023-05-24T02:48:36;4.82;;;4.07;;
67979;SDS011;54760;47.490;19.030;2023-05-24T02:51:01;5.07;;;3.95;;
67979;SDS011;54760;47.490;19.030;2023-05-24T02:53:27;6.32;;;4.00;;
67979;SDS011;54760;47.490;19.030;2023-05-24T02:55:53;6.15;;;4.10;;
67979;SDS011;54760;47.490;19.030;2023-05-24T02:58:19;5.28;;;4.57;;
67979;SDS011;54760;47.490;19.030;2023-05-24T03:00:44;11.68;;;4.65;;
67979;SDS011;54760;47.490;19.030;2023-05-24T03:03:10;5.12;;;4.25;;
67979;SDS011;54760;47.490;19.030;2023-05-24T03:05:36;7.00;;;4.22;;
67979;SDS011;54760;47.490;19.030;2023-05-24T03:08:01;5.90;;;4.30;;
67979;SDS011;54760;47.490;19.030;2023-05-24T03:10:27;8.63;;;5.18;;
67979;SDS011;54760;47.490;19.030;2023-05-24T03:12:53;9.25;;;4.45;;
67979;SDS011;54760;47.490;19.030;2023-05-24T03:15:18;5.25;;;4.40;;
67979;SDS011;54760;47.490;19.030;2023-05-24T03:17:44;5.80;;;4.60;;
67979;SDS011;54760;47.490;19.030;2023-05-24T03:20:10;8.07;;;4.85;;
67979;SDS011;54760;47.490;19.030;2023-05-24T03:22:35;6.00;;;4.90;;
67979;SDS011;54760;47.490;19.030;2023-05-24T03:25:01;7.90;;;5.30;;
67979;SDS011;54760;47.490;19.030;2023-05-24T03:27:26;7.57;;;5.20;;
67979;SDS011;54760;47.490;19.030;2023-05-24T03:29:52;9.23;;;5.20;;
67979;SDS011;54760;47.490;19.030;2023-05-24T03:32:17;7.43;;;4.68;;
67979;SDS011;54760;47.490;19.030;2023-05-24T03:34:43;8.90;;;5.20;;
67979;SDS011;54760;47.490;19.030;2023-05-24T03:37:08;8.32;;;5.18;;
67979;SDS011;54760;47.490;19.030;2023-05-24T03:39:33;7.28;;;5.25;;
67979;SDS011;54760;47.490;19.030;2023-05-24T03:41:59;7.00;;;4.95;;
67979;SDS011;54760;47.490;19.030;2023-05-24T03:44:24;6.70;;;5.15;;
67979;SDS011;54760;47.490;19.030;2023-05-24T03:46:50;8.48;;;5.40;;
67979;SDS011;54760;47.490;19.030;2023-05-24T03:49:15;10.88;;;5.62;;
67979;SDS011;54760;47.490;19.030;2023-05-24T03:51:41;10.40;;;5.87;;
67979;SDS011;54760;47.490;19.030;2023-05-24T03:54:06;8.48;;;5.60;;
67979;SDS011;54760;47.490;19.030;2023-05-24T03:56:32;8.25;;;5.40;;
67979;SDS011;54760;47.490;19.030;2023-05-24T03:58:57;7.28;;;5.85;;
67979;SDS011;54760;47.490;19.030;2023-05-24T04:01:24;10.50;;;6.03;;
67979;SDS011;54760;47.490;19.030;2023-05-24T04:03:50;11.35;;;7.00;;
67979;SDS011;54760;47.490;19.030;2023-05-24T04:06:16;13.32;;;7.53;;
67979;SDS011;54760;47.490;19.030;2023-05-24T04:08:42;8.82;;;6.72;;
67979;SDS011;54760;47.490;19.030;2023-05-24T04:11:08;8.85;;;7.57;;
67979;SDS011;54760;47.490;19.030;2023-05-24T04:13:33;7.78;;;6.97;;
67979;SDS011;54760;47.490;19.030;2023-05-24T04:15:59;11.52;;;7.68;;
67979;SDS011;54760;47.490;19.030;2023-05-24T04:18:24;11.52;;;7.05;;
67979;SDS011;54760;47.490;19.030;2023-05-24T04:20:49;9.90;;;6.72;;
67979;SDS011;54760;47.490;19.030;2023-05-24T04:23:15;9.93;;;7.47;;
67979;SDS011;54760;47.490;19.030;2023-05-24T04:25:41;9.88;;;7.00;;
67979;SDS011;54760;47.490;19.030;2023-05-24T04:28:06;10.50;;;7.47;;
67979;SDS011;54760;47.490;19.030;2023-05-24T04:30:32;11.50;;;7.55;;
67979;SDS011;54760;47.490;19.030;2023-05-24T04:32:57;7.82;;;7.00;;
67979;SDS011;54760;47.490;19.030;2023-05-24T04:35:23;9.55;;;7.68;;
67979;SDS011;54760;47.490;19.030;2023-05-24T04:37:49;10.68;;;8.07;;
67979;SDS011;54760;47.490;19.030;2023-05-24T04:40:15;10.93;;;8.30;;
67979;SDS011;54760;47.490;19.030;2023-05-24T04:42:41;10.60;;;7.75;;
67979;SDS011;54760;47.490;19.030;2023-05-24T04:45:07;10.90;;;7.75;;
67979;SDS011;54760;47.490;19.030;2023-05-24T04:47:32;10.65;;;7.97;;
67979;SDS011;54760;47.490;19.030;2023-05-24T04:49:58;8.20;;;7.32;;
67979;SDS011;54760;47.490;19.030;2023-05-24T04:52:23;11.32;;;8.60;;
67979;SDS011;54760;47.490;19.030;2023-05-24T04:54:49;9.88;;;8.45;;
67979;SDS011;54760;47.490;19.030;2023-05-24T04:57:15;9.27;;;8.07;;
67979;SDS011;54760;47.490;19.030;2023-05-24T04:59:41;10.93;;;8.68;;
67979;SDS011;54760;47.490;19.030;2023-05-24T05:02:06;11.00;;;9.65;;
67979;SDS011;54760;47.490;19.030;2023-05-24T05:04:32;10.40;;;9.13;;
67979;SDS011;54760;47.490;19.030;2023-05-24T05:06:57;10.60;;;9.30;;
67979;SDS011;54760;47.490;19.030;2023-05-24T05:09:22;10.43;;;9.13;;
67979;SDS011;54760;47.490;19.030;2023-05-24T05:11:48;10.40;;;9.18;;
67979;SDS011;54760;47.490;19.030;2023-05-24T05:14:14;12.57;;;9.65;;
67979;SDS011;54760;47.490;19.030;2023-05-24T05:16:40;10.90;;;9.23;;
67979;SDS011;54760;47.490;19.030;2023-05-24T05:19:06;36.88;;;12.10;;
67979;SDS011;54760;47.490;19.030;2023-05-24T05:21:32;18.10;;;10.65;;
67979;SDS011;54760;47.490;19.030;2023-05-24T05:23:59;11.65;;;10.45;;
67979;SDS011;54760;47.490;19.030;2023-05-24T05:26:26;12.15;;;10.65;;
67979;SDS011;54760;47.490;19.030;2023-05-24T05:28:52;16.30;;;10.77;;
67979;SDS011;54760;47.490;19.030;2023-05-24T05:31:18;17.95;;;11.07;;
67979;SDS011;54760;47.490;19.030;2023-05-24T05:33:44;14.57;;;9.75;;
67979;SDS011;54760;47.490;19.030;2023-05-24T05:36:09;12.65;;;10.52;;
67979;SDS011;54760;47.490;19.030;2023-05-24T05:38:35;14.45;;;10.05;;
67979;SDS011;54760;47.490;19.030;2023-05-24T05:41:00;13.50;;;10.23;;
67979;SDS011;54760;47.490;19.030;2023-05-24T05:43:26;12.48;;;10.07;;
67979;SDS011;54760;47.490;19.030;2023-05-24T05:45:53;10.65;;;8.98;;
67979;SDS011;54760;47.490;19.030;2023-05-24T05:48:18;11.70;;;8.85;;
67979;SDS011;54760;47.490;19.030;2023-05-24T05:50:44;10.15;;;9.02;;
67979;SDS011;54760;47.490;19.030;2023-05-24T05:53:09;15.25;;;9.07;;
67979;SDS011;54760;47.490;19.030;2023-05-24T05:55:35;11.02;;;9.30;;
67979;SDS011;54760;47.490;19.030;2023-05-24T05:58:00;14.25;;;8.35;;
67979;SDS011;54760;47.490;19.030;2023-05-24T06:00:25;10.52;;;7.62;;
67979;SDS011;54760;47.490;19.030;2023-05-24T06:02:51;10.00;;;7.40;;
67979;SDS011;54760;47.490;19.030;2023-05-24T06:05:17;9.70;;;8.00;;
67979;SDS011;54760;47.490;19.030;2023-05-24T06:07:43;13.07;;;7.72;;
67979;SDS011;54760;47.490;19.030;2023-05-24T06:10:09;9.07;;;7.78;;
67979;SDS011;54760;47.490;19.030;2023-05-24T06:12:35;9.68;;;7.85;;
67979;SDS011;54760;47.490;19.030;2023-05-24T06:15:02;9.43;;;7.55;;
67979;SDS011;54760;47.490;19.030;2023-05-24T06:17:30;9.50;;;7.80;;
67979;SDS011;54760;47.490;19.030;2023-05-24T06:19:55;10.68;;;8.43;;
67979;SDS011;54760;47.490;19.030;2023-05-24T06:22:21;9.02;;;8.13;;
67979;SDS011;54760;47.490;19.030;2023-05-24T06:24:47;14.25;;;8.18;;
67979;SDS011;54760;47.490;19.030;2023-05-24T06:27:13;13.48;;;7.70;;
67979;SDS011;54760;47.490;19.030;2023-05-24T06:29:38;8.73;;;7.82;;
67979;SDS011;54760;47.490;19.030;2023-05-24T06:32:04;11.00;;;8.45;;
67979;SDS011;54760;47.490;19.030;2023-05-24T06:34:30;9.77;;;7.75;;
67979;SDS011;54760;47.490;19.030;2023-05-24T06:36:55;10.30;;;7.85;;
67979;SDS011;54760;47.490;19.030;2023-05-24T06:39:22;10.30;;;7.55;;
67979;SDS011;54760;47.490;19.030;2023-05-24T06:41:49;13.38;;;8.40;;
67979;SDS011;54760;47.490;19.030;2023-05-24T06:44:15;8.75;;;7.62;;
67979;SDS011;54760;47.490;19.030;2023-05-24T06:46:41;11.70;;;8.45;;
67979;SDS011;54760;47.490;19.030;2023-05-24T06:49:06;14.23;;;8.40;;
67979;SDS011;54760;47.490;19.030;2023-05-24T06:51:32;9.23;;;8.10;;
67979;SDS011;54760;47.490;19.030;2023-05-24T06:53:58;14.43;;;7.93;;
67979;SDS011;54760;47.490;19.030;2023-05-24T06:56:23;9.52;;;7.95;;
67979;SDS011;54760;47.490;19.030;2023-05-24T06:58:50;11.85;;;7.80;;
67979;SDS011;54760;47.490;19.030;2023-05-24T07:01:16;11.32;;;7.60;;
67979;SDS011;54760;47.490;19.030;2023-05-24T07:03:42;12.63;;;8.32;;
67979;SDS011;54760;47.490;19.030;2023-05-24T07:06:08;9.82;;;7.80;;
67979;SDS011;54760;47.490;19.030;2023-05-24T07:08:37;11.07;;;7.85;;
67979;SDS011;54760;47.490;19.030;2023-05-24T07:11:04;11.90;;;8.68;;
67979;SDS011;54760;47.490;19.030;2023-05-24T07:13:30;10.73;;;8.02;;
67979;SDS011;54760;47.490;19.030;2023-05-24T07:15:56;10.80;;;8.95;;
67979;SDS011;54760;47.490;19.030;2023-05-24T07:18:21;7.75;;;7.03;;
67979;SDS011;54760;47.490;19.030;2023-05-24T07:20:46;13.32;;;8.13;;
67979;SDS011;54760;47.490;19.030;2023-05-24T07:23:12;10.02;;;7.55;;
67979;SDS011;54760;47.490;19.030;2023-05-24T07:25:37;12.63;;;7.90;;
67979;SDS011;54760;47.490;19.030;2023-05-24T07:28:03;8.13;;;6.75;;
67979;SDS011;54760;47.490;19.030;2023-05-24T07:30:28;10.85;;;7.40;;
67979;SDS011;54760;47.490;19.030;2023-05-24T07:32:54;8.88;;;6.72;;
67979;SDS011;54760;47.490;19.030;2023-05-24T07:35:20;12.43;;;11.07;;
67979;SDS011;54760;47.490;19.030;2023-05-24T07:37:47;12.43;;;8.25;;
67979;SDS011;54760;47.490;19.030;2023-05-24T07:40:13;11.27;;;7.72;;
67979;SDS011;54760;47.490;19.030;2023-05-24T07:42:39;9.60;;;7.03;;
67979;SDS011;54760;47.490;19.030;2023-05-24T07:45:05;9.48;;;7.45;;
67979;SDS011;54760;47.490;19.030;2023-05-24T07:47:31;10.82;;;7.30;;
67979;SDS011;54760;47.490;19.030;2023-05-24T07:49:57;11.07;;;7.62;;
67979;SDS011;54760;47.490;19.030;2023-05-24T07:52:22;9.73;;;8.07;;
67979;SDS011;54760;47.490;19.030;2023-05-24T07:54:48;8.55;;;7.65;;
67979;SDS011;54760;47.490;19.030;2023-05-24T07:57:14;12.18;;;8.43;;
67979;SDS011;54760;47.490;19.030;2023-05-24T07:59:39;10.32;;;8.00;;
67979;SDS011;54760;47.490;19.030;2023-05-24T08:02:05;12.05;;;8.52;;
67979;SDS011;54760;47.490;19.030;2023-05-24T08:04:32;10.00;;;9.00;;
67979;SDS011;54760;47.490;19.030;2023-05-24T08:06:57;9.00;;;7.97;;
67979;SDS011;54760;47.490;19.030;2023-05-24T08:09:25;9.75;;;8.75;;
67979;SDS011;54760;47.490;19.030;2023-05-24T08:11:52;9.38;;;8.48;;
67979;SDS011;54760;47.490;19.030;2023-05-24T08:14:17;12.63;;;8.70;;
67979;SDS011;54760;47.490;19.030;2023-05-24T08:16:42;9.85;;;8.50;;
67979;SDS011;54760;47.490;19.030;2023-05-24T08:19:08;10.90;;;7.78;;
67979;SDS011;54760;47.490;19.030;2023-05-24T08:21:33;10.10;;;7.78;;
67979;SDS011;54760;47.490;19.030;2023-05-24T08:23:59;9.27;;;8.38;;
67979;SDS011;54760;47.490;19.030;2023-05-24T08:26:25;10.50;;;8.05;;
67979;SDS011;54760;47.490;19.030;2023-05-24T08:28:50;9.70;;;7.75;;
67979;SDS011;54760;47.490;19.030;2023-05-24T08:31:16;9.95;;;7.68;;
67979;SDS011;54760;47.490;19.030;2023-05-24T08:33:42;10.18;;;7.43;;
67979;SDS011;54760;47.490;19.030;2023-05-24T08:36:07;9.07;;;7.70;;
67979;SDS011;54760;47.490;19.030;2023-05-24T08:38:33;8.90;;;7.12;;
67979;SDS011;54760;47.490;19.030;2023-05-24T08:40:58;8.23;;;7.10;;
67979;SDS011;54760;47.490;19.030;2023-05-24T08:43:24;7.15;;;6.45;;
67979;SDS011;54760;47.490;19.030;2023-05-24T08:45:50;8.02;;;7.00;;
67979;SDS011;54760;47.490;19.030;2023-05-24T08:48:17;9.18;;;7.35;;
67979;SDS011;54760;47.490;19.030;2023-05-24T08:50:43;7.15;;;6.45;;
67979;SDS011;54760;47.490;19.030;2023-05-24T08:53:09;10.02;;;7.32;;
67979;SDS011;54760;47.490;19.030;2023-05-24T08:55:35;8.60;;;6.32;;
67979;SDS011;54760;47.490;19.030;2023-05-24T08:58:02;7.12;;;6.43;;
67979;SDS011;54760;47.490;19.030;2023-05-24T09:00:28;8.27;;;6.10;;
67979;SDS011;54760;47.490;19.030;2023-05-24T09:02:54;7.05;;;5.75;;
67979;SDS011;54760;47.490;19.030;2023-05-24T09:05:21;6.60;;;5.90;;
67979;SDS011;54760;47.490;19.030;2023-05-24T09:07:48;6.90;;;6.05;;
67979;SDS011;54760;47.490;19.030;2023-05-24T09:10:18;8.50;;;6.10;;
67979;SDS011;54760;47.490;19.030;2023-05-24T09:12:54;6.97;;;6.07;;
67979;SDS011;54760;47.490;19.030;2023-05-24T09:15:21;7.60;;;5.57;;
67979;SDS011;54760;47.490;19.030;2023-05-24T09:17:47;6.97;;;5.30;;
67979;SDS011;54760;47.490;19.030;2023-05-24T09:20:12;8.38;;;5.80;;
67979;SDS011;54760;47.490;19.030;2023-05-24T09:22:40;6.85;;;4.87;;
67979;SDS011;54760;47.490;19.030;2023-05-24T09:25:06;7.28;;;6.20;;
67979;SDS011;54760;47.490;19.030;2023-05-24T09:27:33;6.82;;;5.85;;
67979;SDS011;54760;47.490;19.030;2023-05-24T09:30:01;7.47;;;5.50;;
67979;SDS011;54760;47.490;19.030;2023-05-24T09:32:29;7.20;;;5.45;;
67979;SDS011;54760;47.490;19.030;2023-05-24T09:34:56;6.00;;;5.00;;
67979;SDS011;54760;47.490;19.030;2023-05-24T09:37:23;5.93;;;5.15;;
67979;SDS011;54760;47.490;19.030;2023-05-24T09:39:51;8.40;;;5.37;;
67979;SDS011;54760;47.490;19.030;2023-05-24T09:45:04;7.93;;;4.70;;
67979;SDS011;54760;47.490;19.030;2023-05-24T09:47:33;9.38;;;5.18;;
67979;SDS011;54760;47.490;19.030;2023-05-24T09:50:00;6.37;;;5.12;;
67979;SDS011;54760;47.490;19.030;2023-05-24T09:52:26;5.55;;;4.80;;
67979;SDS011;54760;47.490;19.030;2023-05-24T09:54:52;8.50;;;5.30;;
67979;SDS011;54760;47.490;19.030;2023-05-24T09:57:17;7.95;;;4.95;;
67979;SDS011;54760;47.490;19.030;2023-05-24T09:59:46;5.32;;;4.68;;
67979;SDS011;54760;47.490;19.030;2023-05-24T10:02:12;9.02;;;5.37;;
67979;SDS011;54760;47.490;19.030;2023-05-24T10:04:38;5.78;;;5.18;;
67979;SDS011;54760;47.490;19.030;2023-05-24T10:07:04;5.45;;;4.62;;
67979;SDS011;54760;47.490;19.030;2023-05-24T10:09:31;6.97;;;4.43;;
67979;SDS011;54760;47.490;19.030;2023-05-24T10:12:01;5.93;;;4.90;;
67979;SDS011;54760;47.490;19.030;2023-05-24T10:14:30;9.63;;;4.75;;
67979;SDS011;54760;47.490;19.030;2023-05-24T10:17:06;6.20;;;4.95;;
67979;SDS011;54760;47.490;19.030;2023-05-24T10:19:32;6.93;;;5.10;;
67979;SDS011;54760;47.490;19.030;2023-05-24T10:21:58;5.00;;;4.35;;
67979;SDS011;54760;47.490;19.030;2023-05-24T10:24:28;6.87;;;4.45;;
67979;SDS011;54760;47.490;19.030;2023-05-24T10:26:57;9.18;;;5.70;;
67979;SDS011;54760;47.490;19.030;2023-05-24T10:29:47;8.57;;;4.55;;
67979;SDS011;54760;47.490;19.030;2023-05-24T10:32:10;8.20;;;4.90;;
67979;SDS011;54760;47.490;19.030;2023-05-24T10:34:38;5.43;;;4.40;;
67979;SDS011;54760;47.490;19.030;2023-05-24T10:37:05;6.95;;;4.65;;
67979;SDS011;54760;47.490;19.030;2023-05-24T10:39:32;6.75;;;4.72;;
67979;SDS011;54760;47.490;19.030;2023-05-24T10:42:05;5.05;;;4.40;;
67979;SDS011;54760;47.490;19.030;2023-05-24T10:44:31;8.35;;;4.00;;
67979;SDS011;54760;47.490;19.030;2023-05-24T10:47:00;6.28;;;4.50;;
67979;SDS011;54760;47.490;19.030;2023-05-24T10:49:31;6.85;;;4.90;;
67979;SDS011;54760;47.490;19.030;2023-05-24T10:52:00;5.12;;;4.62;;
67979;SDS011;54760;47.490;19.030;2023-05-24T10:54:26;6.07;;;4.53;;
67979;SDS011;54760;47.490;19.030;2023-05-24T10:56:52;5.97;;;4.32;;
67979;SDS011;54760;47.490;19.030;2023-05-24T11:02:02;6.35;;;4.85;;
67979;SDS011;54760;47.490;19.030;2023-05-24T11:04:30;4.78;;;4.22;;
67979;SDS011;54760;47.490;19.030;2023-05-24T11:07:00;5.15;;;4.37;;
67979;SDS011;54760;47.490;19.030;2023-05-24T11:09:29;5.22;;;4.20;;
67979;SDS011;54760;47.490;19.030;2023-05-24T11:11:57;8.57;;;4.70;;
67979;SDS011;54760;47.490;19.030;2023-05-24T11:14:28;6.45;;;4.80;;
67979;SDS011;54760;47.490;19.030;2023-05-24T11:16:56;8.43;;;4.60;;
67979;SDS011;54760;47.490;19.030;2023-05-24T11:19:31;5.45;;;4.43;;
67979;SDS011;54760;47.490;19.030;2023-05-24T11:22:09;5.65;;;4.20;;
67979;SDS011;54760;47.490;19.030;2023-05-24T11:24:39;4.35;;;3.90;;
67979;SDS011;54760;47.490;19.030;2023-05-24T11:27:05;5.07;;;4.40;;
67979;SDS011;54760;47.490;19.030;2023-05-24T11:29:31;7.60;;;4.40;;
67979;SDS011;54760;47.490;19.030;2023-05-24T11:31:58;5.18;;;4.68;;
67979;SDS011;54760;47.490;19.030;2023-05-24T11:34:32;4.57;;;4.18;;
67979;SDS011;54760;47.490;19.030;2023-05-24T11:36:58;5.85;;;4.40;;
67979;SDS011;54760;47.490;19.030;2023-05-24T11:39:31;5.72;;;4.43;;
67979;SDS011;54760;47.490;19.030;2023-05-24T11:41:58;4.75;;;4.20;;
67979;SDS011;54760;47.490;19.030;2023-05-24T11:44:26;14.40;;;6.47;;
67979;SDS011;54760;47.490;19.030;2023-05-24T11:47:00;7.55;;;5.12;;
67979;SDS011;54760;47.490;19.030;2023-05-24T11:49:26;4.90;;;4.28;;
67979;SDS011;54760;47.490;19.030;2023-05-24T11:51:55;6.97;;;4.43;;
67979;SDS011;54760;47.490;19.030;2023-05-24T11:54:22;4.65;;;4.07;;
67979;SDS011;54760;47.490;19.030;2023-05-24T11:56:48;6.68;;;4.50;;
67979;SDS011;54760;47.490;19.030;2023-05-24T11:59:14;6.37;;;4.55;;
67979;SDS011;54760;47.490;19.030;2023-05-24T12:01:47;6.05;;;4.30;;
67979;SDS011;54760;47.490;19.030;2023-05-24T12:04:13;5.47;;;4.15;;
67979;SDS011;54760;47.490;19.030;2023-05-24T12:06:40;6.85;;;4.20;;
67979;SDS011;54760;47.490;19.030;2023-05-24T12:09:07;5.45;;;4.18;;
67979;SDS011;54760;47.490;19.030;2023-05-24T12:11:40;4.70;;;4.00;;
67979;SDS011;54760;47.490;19.030;2023-05-24T12:14:14;5.03;;;4.00;;
67979;SDS011;54760;47.490;19.030;2023-05-24T12:16:53;5.78;;;4.20;;
67979;SDS011;54760;47.490;19.030;2023-05-24T12:19:22;4.25;;;3.85;;
67979;SDS011;54760;47.490;19.030;2023-05-24T12:21:57;5.65;;;3.97;;
67979;SDS011;54760;47.490;19.030;2023-05-24T12:24:23;5.20;;;4.18;;
67979;SDS011;54760;47.490;19.030;2023-05-24T12:26:50;5.50;;;4.37;;
67979;SDS011;54760;47.490;19.030;2023-05-24T12:29:16;5.85;;;4.30;;
67979;SDS011;54760;47.490;19.030;2023-05-24T12:31:42;7.78;;;4.95;;
67979;SDS011;54760;47.490;19.030;2023-05-24T12:34:21;6.37;;;4.30;;
67979;SDS011;54760;47.490;19.030;2023-05-24T12:36:48;4.55;;;4.05;;
67979;SDS011;54760;47.490;19.030;2023-05-24T12:41:50;5.15;;;3.75;;
67979;SDS011;54760;47.490;19.030;2023-05-24T12:44:17;5.00;;;4.05;;
67979;SDS011;54760;47.490;19.030;2023-05-24T12:46:47;4.07;;;3.50;;
67979;SDS011;54760;47.490;19.030;2023-05-24T12:49:12;8.30;;;4.20;;
67979;SDS011;54760;47.490;19.030;2023-05-24T12:51:38;5.90;;;4.22;;
67979;SDS011;54760;47.490;19.030;2023-05-24T12:54:03;6.72;;;4.20;;
67979;SDS011;54760;47.490;19.030;2023-05-24T12:56:29;4.50;;;3.90;;
67979;SDS011;54760;47.490;19.030;2023-05-24T12:58:55;7.35;;;3.75;;
67979;SDS011;54760;47.490;19.030;2023-05-24T13:01:20;6.35;;;3.62;;
67979;SDS011;54760;47.490;19.030;2023-05-24T13:03:45;4.10;;;3.70;;
67979;SDS011;54760;47.490;19.030;2023-05-24T13:06:11;5.12;;;4.05;;
67979;SDS011;54760;47.490;19.030;2023-05-24T13:08:37;4.55;;;3.80;;
67979;SDS011;54760;47.490;19.030;2023-05-24T13:11:02;4.20;;;3.60;;
67979;SDS011;54760;47.490;19.030;2023-05-24T13:13:28;4.37;;;3.75;;
67979;SDS011;54760;47.490;19.030;2023-05-24T13:15:53;8.27;;;4.12;;
67979;SDS011;54760;47.490;19.030;2023-05-24T13:18:19;5.68;;;3.85;;
67979;SDS011;54760;47.490;19.030;2023-05-24T13:20:44;3.80;;;3.40;;
67979;SDS011;54760;47.490;19.030;2023-05-24T13:23:10;4.15;;;3.75;;
67979;SDS011;54760;47.490;19.030;2023-05-24T13:25:35;7.93;;;4.10;;
67979;SDS011;54760;47.490;19.030;2023-05-24T13:28:00;5.65;;;3.70;;
67979;SDS011;54760;47.490;19.030;2023-05-24T13:30:26;3.90;;;3.37;;
67979;SDS011;54760;47.490;19.030;2023-05-24T13:32:55;4.05;;;3.58;;
67979;SDS011;54760;47.490;19.030;2023-05-24T13:35:23;4.12;;;3.30;;
67979;SDS011;54760;47.490;19.030;2023-05-24T13:37:49;5.95;;;3.45;;
67979;SDS011;54760;47.490;19.030;2023-05-24T13:40:15;5.07;;;4.20;;
67979;SDS011;54760;47.490;19.030;2023-05-24T13:42:41;5.07;;;3.65;;
67979;SDS011;54760;47.490;19.030;2023-05-24T13:45:06;5.68;;;3.60;;
67979;SDS011;54760;47.490;19.030;2023-05-24T13:47:32;4.15;;;3.75;;
67979;SDS011;54760;47.490;19.030;2023-05-24T13:49:57;3.80;;;3.30;;
67979;SDS011;54760;47.490;19.030;2023-05-24T13:52:23;5.82;;;3.65;;
67979;SDS011;54760;47.490;19.030;2023-05-24T13:54:48;5.20;;;3.53;;
67979;SDS011;54760;47.490;19.030;2023-05-24T13:57:15;3.83;;;3.10;;
67979;SDS011;54760;47.490;19.030;2023-05-24T13:59:41;5.47;;;3.62;;
67979;SDS011;54760;47.490;19.030;2023-05-24T14:02:06;6.22;;;3.47;;
67979;SDS011;54760;47.490;19.030;2023-05-24T14:04:32;5.20;;;3.50;;
67979;SDS011;54760;47.490;19.030;2023-05-24T14:06:57;4.30;;;3.67;;
67979;SDS011;54760;47.490;19.030;2023-05-24T14:09:23;4.65;;;4.10;;
67979;SDS011;54760;47.490;19.030;2023-05-24T14:11:50;4.20;;;3.80;;
67979;SDS011;54760;47.490;19.030;2023-05-24T14:14:16;3.90;;;3.50;;
67979;SDS011;54760;47.490;19.030;2023-05-24T14:16:41;4.87;;;3.67;;
67979;SDS011;54760;47.490;19.030;2023-05-24T14:19:06;5.47;;;3.70;;
67979;SDS011;54760;47.490;19.030;2023-05-24T14:21:32;3.95;;;3.53;;
67979;SDS011;54760;47.490;19.030;2023-05-24T14:23:57;4.37;;;3.45;;
67979;SDS011;54760;47.490;19.030;2023-05-24T14:26:23;3.67;;;3.28;;
67979;SDS011;54760;47.490;19.030;2023-05-24T14:28:48;4.07;;;3.67;;
67979;SDS011;54760;47.490;19.030;2023-05-24T14:31:14;5.20;;;3.53;;
67979;SDS011;54760;47.490;19.030;2023-05-24T14:33:39;6.32;;;4.22;;
67979;SDS011;54760;47.490;19.030;2023-05-24T14:36:05;5.55;;;3.90;;
67979;SDS011;54760;47.490;19.030;2023-05-24T14:38:30;3.47;;;3.17;;
67979;SDS011;54760;47.490;19.030;2023-05-24T14:40:56;5.00;;;3.42;;
67979;SDS011;54760;47.490;19.030;2023-05-24T14:43:22;5.05;;;3.70;;
67979;SDS011;54760;47.490;19.030;2023-05-24T14:45:48;4.75;;;3.60;;
67979;SDS011;54760;47.490;19.030;2023-05-24T14:48:13;3.90;;;3.50;;
67979;SDS011;54760;47.490;19.030;2023-05-24T14:50:40;4.12;;;3.72;;
67979;SDS011;54760;47.490;19.030;2023-05-24T14:53:06;4.37;;;3.25;;